Time;durP1;ratioP1;P1;durP2;ratioP2;P2;SDS_P1;SDS_P2;PMS_P1;PMS_P2;Temp;Humidity;BMP_temperature;BMP_pressure;BME280_temperature;BME280_humidity;BME280_pressure;Samples;Min_cycle;Max_cycle;Signal;HPM_P1;HPM_P2
2022/01/14 00:01:13;;;;;;;27.90;10.70;;;;;;;2.56;99.77;102752.10;108164;1277;73953;-78
2022/01/14 00:03:43;;;;;;;35.00;14.30;;;;;;;2.57;99.57;102747.35;108166;1277;70215;-79
2022/01/14 00:06:13;;;;;;;28.00;11.70;;;;;;;2.56;99.74;102740.76;107942;1277;74051;-79
2022/01/14 00:08:40;;;;;;;27.80;11.80;;;;;;;2.56;99.82;102731.15;107984;1279;62234;-78
2022/01/14 00:11:44;;;;;;;24.30;10.50;;;;;;;2.58;99.85;102731.42;108130;1277;61552;-79
2022/01/14 00:16:44;;;;;;;35.40;12.50;;;;;;;2.58;100.00;102727.23;107992;1278;72548;-77
2022/01/14 00:19:15;;;;;;;26.50;11.00;;;;;;;2.60;99.96;102727.67;108156;1277;73002;-78
2022/01/14 00:21:50;;;;;;;28.70;11.10;;;;;;;2.59;99.99;102725.27;107986;1278;62660;-78
2022/01/14 00:31:37;;;;;;;27.50;10.40;;;;;;;2.59;99.99;102720.53;108014;1278;60698;-79
2022/01/14 00:35:53;;;;;;;29.90;12.10;;;;;;;2.56;100.00;102725.59;107468;1283;61501;-78
2022/01/14 00:38:20;;;;;;;27.40;11.10;;;;;;;2.56;100.00;102722.05;107540;1282;60571;-79
2022/01/14 00:40:50;;;;;;;28.80;12.50;;;;;;;2.56;100.00;102723.82;107569;1283;74837;-78
2022/01/14 00:43:17;;;;;;;33.20;12.70;;;;;;;2.57;100.00;102717.48;107607;1282;72654;-79
2022/01/14 00:45:46;;;;;;;35.60;14.30;;;;;;;2.57;100.00;102715.56;107670;1281;72915;-79
2022/01/14 00:48:13;;;;;;;32.40;11.80;;;;;;;2.58;100.00;102710.27;107633;1283;62687;-78
2022/01/14 00:50:44;;;;;;;25.30;9.10;;;;;;;2.57;100.00;102703.87;107506;1283;61703;-79
2022/01/14 00:53:11;;;;;;;26.60;9.80;;;;;;;2.57;100.00;102707.88;107621;1282;76073;-78
2022/01/14 00:56:06;;;;;;;28.50;11.80;;;;;;;2.56;100.00;102705.14;107481;1284;71494;-79
2022/01/14 01:01:13;;;;;;;29.60;12.10;;;;;;;2.57;100.00;102705.81;107677;1282;61581;-79
2022/01/14 01:03:40;;;;;;;24.90;9.10;;;;;;;2.57;100.00;102702.31;107559;1284;61606;-80
2022/01/14 01:06:13;;;;;;;30.20;10.20;;;;;;;2.55;100.00;102701.70;107736;1280;74959;-79
2022/01/14 01:08:44;;;;;;;27.20;10.80;;;;;;;2.55;100.00;102704.83;108150;1277;71337;-79
2022/01/14 01:11:11;;;;;;;31.50;11.90;;;;;;;2.54;100.00;102701.59;108305;1277;73982;-79
2022/01/14 01:13:43;;;;;;;35.70;13.20;;;;;;;2.54;100.00;102708.20;108194;1277;62604;-78
2022/01/14 01:16:13;;;;;;;26.80;11.20;;;;;;;2.52;100.00;102697.80;108212;1277;61638;-79
2022/01/14 01:18:45;;;;;;;30.30;11.80;;;;;;;2.54;100.00;102707.84;108073;1278;74748;-79
2022/01/14 01:21:14;;;;;;;22.30;9.30;;;;;;;2.55;100.00;102712.33;108341;1277;72100;-81
2022/01/14 01:23:41;;;;;;;30.30;11.10;;;;;;;2.56;100.00;102712.65;108077;1277;72784;-81
2022/01/14 01:26:17;;;;;;;29.80;11.90;;;;;;;2.57;100.00;102718.54;108084;1277;61975;-81
2022/01/14 01:29:01;;;;;;;30.70;13.20;;;;;;;2.56;100.00;102721.36;108211;1277;60423;-80
2022/01/14 01:31:45;;;;;;;;;;;;;;;;;;;;;
2022/01/14 01:34:18;;;;;;;39.60;12.10;;;;;;;2.56;100.00;102704.25;107949;1277;71337;-80
2022/01/14 01:36:52;;;;;;;28.00;11.90;;;;;;;2.55;100.00;102709.23;108194;1277;72100;-80
2022/01/14 01:39:28;;;;;;;31.90;12.30;;;;;;;2.54;100.00;102709.27;108095;1277;62249;-80
2022/01/14 01:42:06;;;;;;;28.80;11.70;;;;;;;2.53;100.00;102703.20;108031;1279;60646;-80
2022/01/14 01:44:35;;;;;;;34.80;11.90;;;;;;;2.50;100.00;102700.35;108027;1279;73452;-81
2022/01/14 01:47:03;;;;;;;28.80;10.70;;;;;;;2.50;100.00;102704.02;108268;1277;70350;-81
2022/01/14 01:49:36;;;;;;;29.20;11.60;;;;;;;2.49;100.00;102702.66;108221;1277;73499;-81
2022/01/14 01:52:04;;;;;;;24.20;10.60;;;;;;;2.49;100.00;102696.92;108111;1277;62569;-81
2022/01/14 01:54:32;;;;;;;30.00;11.60;;;;;;;2.50;100.00;102694.79;108108;1277;60546;-80
2022/01/14 01:57:02;;;;;;;27.50;11.90;;;;;;;2.51;100.00;102694.73;108275;1277;75650;-80
2022/01/14 01:59:30;;;;;;;37.30;12.90;;;;;;;2.50;100.00;102691.46;108244;1277;71861;-81
2022/01/14 02:01:59;;;;;;;29.70;11.60;;;;;;;2.50;100.00;102693.23;108277;1277;71905;-81
2022/01/14 02:04:28;;;;;;;24.00;10.50;;;;;;;2.49;100.00;102696.73;108228;1277;62611;-82
2022/01/14 02:06:56;;;;;;;32.10;11.40;;;;;;;2.49;100.00;102689.74;108290;1277;59493;-80
2022/01/14 02:09:25;;;;;;;26.30;10.60;;;;;;;2.49;100.00;102685.02;108092;1277;74978;-80
2022/01/14 02:11:52;;;;;;;27.00;10.20;;;;;;;2.49;100.00;102681.17;108239;1277;72422;-79
2022/01/14 02:23:02;;;;;;;22.40;9.40;;;;;;;2.48;100.00;102675.98;108215;1277;75746;-80
2022/01/14 02:25:31;;;;;;;32.00;11.90;;;;;;;2.47;100.00;102680.80;108216;1277;71139;-80
2022/01/14 02:28:01;;;;;;;32.10;12.00;;;;;;;2.46;100.00;102678.20;108236;1277;73697;-80
2022/01/14 02:30:39;;;;;;;25.40;10.30;;;;;;;2.45;100.00;102678.02;108056;1277;59965;-80
2022/01/14 02:33:11;;;;;;;27.10;10.60;;;;;;;2.45;100.00;102677.71;107692;1277;658876;-80
2022/01/14 02:35:43;;;;;;;23.80;8.50;;;;;;;2.45;100.00;102679.45;108232;1277;74807;-80
2022/01/14 02:38:14;;;;;;;26.20;11.60;;;;;;;2.43;100.00;102676.21;108004;1277;71552;-80
2022/01/14 02:40:42;;;;;;;19.60;7.90;;;;;;;2.43;100.00;102673.27;107788;1279;73970;-78
2022/01/14 02:43:16;;;;;;;25.40;9.90;;;;;;;2.44;100.00;102676.20;108029;1279;60100;-80
2022/01/14 02:46:08;;;;;;;29.70;10.30;;;;;;;2.44;100.00;102671.11;107965;1277;62246;-79
2022/01/14 02:48:33;;;;;;;28.00;11.80;;;;;;;2.45;100.00;102659.55;108077;1277;75013;-79
2022/01/14 02:51:15;;;;;;;31.30;11.00;;;;;;;2.46;100.00;102665.27;108137;1277;72690;-77
2022/01/14 02:53:56;;;;;;;28.40;11.00;;;;;;;2.47;100.00;102668.88;108174;1277;74116;-79
2022/01/14 02:56:32;;;;;;;29.40;10.20;;;;;;;2.47;100.00;102658.42;108036;1277;62226;-80
2022/01/14 02:59:01;;;;;;;18.50;9.00;;;;;;;2.47;100.00;102656.16;108056;1279;60670;-79
2022/01/14 03:01:28;;;;;;;31.70;13.10;;;;;;;2.47;100.00;102652.47;108109;1277;75302;-78
2022/01/14 03:03:57;;;;;;;30.00;11.70;;;;;;;2.49;100.00;102646.63;108177;1277;70041;-77
2022/01/14 03:06:27;;;;;;;30.30;12.60;;;;;;;2.49;100.00;102640.66;107933;1277;74007;-77
2022/01/14 03:09:01;;;;;;;30.40;11.00;;;;;;;2.49;100.00;102638.59;108077;1277;62192;-79
2022/01/14 03:11:35;;;;;;;24.60;10.50;;;;;;;2.50;100.00;102634.88;108271;1277;60505;-77
2022/01/14 03:14:10;;;;;;;23.90;10.00;;;;;;;2.52;100.00;102633.03;108183;1277;74987;-77
2022/01/14 03:16:41;;;;;;;20.60;7.70;;;;;;;2.53;100.00;102633.66;108161;1275;71532;-78
2022/01/14 03:19:16;;;;;;;29.40;11.30;;;;;;;2.53;100.00;102632.83;108165;1277;71890;-78
2022/01/14 03:21:43;;;;;;;22.80;10.30;;;;;;;2.53;100.00;102634.00;108188;1277;60988;-77
2022/01/14 03:25:37;;;;;;;25.30;10.50;;;;;;;2.54;100.00;102633.09;108169;1277;60604;-77
2022/01/14 03:27:11;;;;;;;18.70;7.30;;;;;;;2.57;100.00;102638.55;108060;1279;75036;-77
2022/01/14 03:29:38;;;;;;;26.00;10.30;;;;;;;2.57;100.00;102630.67;108017;1278;71466;-77
2022/01/14 03:32:06;;;;;;;31.40;11.90;;;;;;;2.59;100.00;102628.31;108106;1277;72962;-77
2022/01/14 03:34:36;;;;;;;27.80;10.70;;;;;;;2.59;100.00;102634.59;108119;1277;62457;-77
2022/01/14 03:37:03;;;;;;;29.50;9.80;;;;;;;2.61;100.00;102633.44;108174;1277;61656;-77
2022/01/14 03:39:30;;;;;;;25.50;10.30;;;;;;;2.62;100.00;102633.41;108047;1278;74907;-77
2022/01/14 03:41:57;;;;;;;29.10;11.50;;;;;;;2.64;100.00;102636.79;107923;1279;71599;-76
2022/01/14 03:44:24;;;;;;;30.10;11.80;;;;;;;2.66;100.00;102637.56;108157;1277;72788;-77
2022/01/14 03:46:52;;;;;;;27.70;10.70;;;;;;;2.68;100.00;102633.62;108138;1277;61174;-77
2022/01/14 03:49:26;;;;;;;35.40;11.70;;;;;;;2.68;100.00;102630.66;108206;1277;59351;-77
2022/01/14 03:51:53;;;;;;;34.20;12.80;;;;;;;2.68;100.00;102635.04;108175;1275;74974;-76
2022/01/14 03:54:21;;;;;;;29.90;10.70;;;;;;;2.70;100.00;102629.18;108046;1277;71337;-77
2022/01/14 03:56:51;;;;;;;22.50;8.10;;;;;;;2.71;100.00;102622.85;108133;1277;73936;-78
2022/01/14 03:59:26;;;;;;;22.50;8.80;;;;;;;2.71;100.00;102624.58;107930;1277;59889;-78
2022/01/14 04:01:52;;;;;;;27.80;11.60;;;;;;;2.72;100.00;102618.77;108239;1277;61645;-78
2022/01/14 04:04:54;;;;;;;26.60;10.90;;;;;;;2.73;100.00;102625.91;108027;1279;76151;-77
2022/01/14 04:07:21;;;;;;;28.90;11.70;;;;;;;2.72;100.00;102629.74;108157;1277;72710;-77
2022/01/14 04:09:48;;;;;;;34.20;12.00;;;;;;;2.74;100.00;102625.66;108182;1277;72925;-77
2022/01/14 04:12:28;;;;;;;26.80;11.50;;;;;;;2.75;100.00;102622.96;108155;1277;62884;-78
2022/01/14 04:17:32;;;;;;;20.80;9.40;;;;;;;2.79;100.00;102615.08;108247;1277;76227;-79
2022/01/14 04:20:07;;;;;;;25.80;9.60;;;;;;;2.80;100.00;102611.00;108234;1277;72395;-80
2022/01/14 04:22:36;;;;;;;28.30;9.20;;;;;;;2.81;100.00;102607.11;108215;1277;73045;-80
2022/01/14 04:25:09;;;;;;;32.60;11.70;;;;;;;2.82;100.00;102605.85;108248;1277;61502;-80
2022/01/14 04:27:40;;;;;;;29.40;10.80;;;;;;;2.83;100.00;102605.98;108251;1277;60717;-79
2022/01/14 04:30:11;;;;;;;30.50;11.60;;;;;;;2.83;100.00;102596.85;108019;1278;74047;-80
2022/01/14 04:32:46;;;;;;;30.50;12.50;;;;;;;2.85;100.00;102591.88;108255;1277;71976;-80
2022/01/14 04:35:36;;;;;;;27.10;10.40;;;;;;;2.86;100.00;102590.98;108066;1279;71888;-80
2022/01/14 04:38:04;;;;;;;30.60;11.30;;;;;;;2.87;100.00;102590.20;108281;1277;61298;-77
2022/01/14 04:40:32;;;;;;;28.20;11.70;;;;;;;2.88;100.00;102587.40;108205;1277;60524;-76
2022/01/14 04:43:00;;;;;;;29.50;11.50;;;;;;;2.89;100.00;102587.70;108025;1277;74568;-78
2022/01/14 04:48:06;;;;;;;27.70;11.60;;;;;;;2.91;100.00;102579.52;108213;1277;74101;-78
2022/01/14 04:50:33;;;;;;;30.80;12.50;;;;;;;2.93;100.00;102567.56;108195;1277;62318;-77
2022/01/14 04:53:00;;;;;;;22.40;8.70;;;;;;;2.96;100.00;102563.40;108154;1277;61971;-78
2022/01/14 04:55:48;;;;;;;28.00;11.10;;;;;;;2.97;100.00;102559.66;108089;1279;76164;-79
2022/01/14 04:58:28;;;;;;;30.10;10.50;;;;;;;2.99;100.00;102555.55;108349;1277;70657;-79
2022/01/14 05:00:57;;;;;;;31.20;10.60;;;;;;;3.00;100.00;102552.32;108064;1278;72964;-79
2022/01/14 05:03:42;;;;;;;24.70;9.00;;;;;;;3.02;100.00;102537.39;108157;1277;62204;-78
2022/01/14 05:06:09;;;;;;;32.90;12.90;;;;;;;3.04;100.00;102540.60;108143;1279;59326;-80
2022/01/14 05:08:38;;;;;;;28.70;11.40;;;;;;;3.05;100.00;102534.77;108341;1275;74843;-79
2022/01/14 05:13:47;;;;;;;34.50;13.00;;;;;;;3.09;100.00;102533.85;108052;1278;74188;-79
2022/01/14 05:16:14;;;;;;;30.70;11.50;;;;;;;3.11;100.00;102527.30;107965;1277;63814;-77
2022/01/14 05:18:41;;;;;;;26.90;10.10;;;;;;;3.12;100.00;102524.94;108160;1277;59295;-77
2022/01/14 05:21:09;;;;;;;29.10;12.20;;;;;;;3.15;100.00;102531.13;108240;1276;76031;-77
2022/01/14 05:23:35;;;;;;;28.20;9.50;;;;;;;3.15;100.00;102529.67;108223;1277;72479;-77
2022/01/14 05:26:02;;;;;;;28.90;11.50;;;;;;;3.16;100.00;102527.34;108091;1278;71884;-78
2022/01/14 05:28:29;;;;;;;26.80;10.40;;;;;;;3.19;100.00;102530.20;108067;1278;61920;-76
2022/01/14 05:31:04;;;;;;;24.90;9.80;;;;;;;3.21;100.00;102528.82;108252;1276;60252;-78
2022/01/14 05:33:32;;;;;;;24.70;10.30;;;;;;;3.24;100.00;102523.92;108258;1277;74786;-77
2022/01/14 05:35:59;;;;;;;24.20;11.30;;;;;;;3.26;100.00;102527.18;108276;1276;73193;-78
2022/01/14 05:38:26;;;;;;;22.40;9.60;;;;;;;3.29;100.00;102528.10;108069;1277;74406;-78
2022/01/14 05:40:53;;;;;;;33.40;12.60;;;;;;;3.30;100.00;102523.48;108152;1277;62662;-79
2022/01/14 05:43:19;;;;;;;22.90;8.40;;;;;;;3.32;100.00;102513.59;108257;1277;60493;-78
2022/01/14 05:45:46;;;;;;;26.00;10.80;;;;;;;3.34;100.00;102512.63;108179;1277;74928;-79
2022/01/14 05:48:13;;;;;;;25.70;11.20;;;;;;;3.34;100.00;102508.02;108197;1277;71739;-78
2022/01/14 05:50:40;;;;;;;30.60;12.90;;;;;;;3.36;100.00;102511.98;108090;1277;72996;-76
2022/01/14 05:53:27;;;;;;;;;;;;;;;;;;;;;
2022/01/14 05:55:54;;;;;;;28.80;11.80;;;;;;;3.41;100.00;102509.06;108166;1277;60631;-77
2022/01/14 05:58:20;;;;;;;29.50;13.50;;;;;;;3.42;100.00;102499.23;108185;1276;76036;-77
2022/01/14 06:00:47;;;;;;;27.00;11.90;;;;;;;3.43;100.00;102502.81;108230;1277;71462;-78
2022/01/14 06:03:14;;;;;;;20.90;8.50;;;;;;;3.44;100.00;102499.27;108204;1277;73826;-76
2022/01/14 06:05:41;;;;;;;29.50;11.60;;;;;;;3.44;100.00;102495.58;108175;1277;62156;-77
2022/01/14 06:08:15;;;;;;;31.80;12.00;;;;;;;3.45;100.00;102501.69;108094;1279;61583;-77
2022/01/14 06:10:42;;;;;;;27.10;11.00;;;;;;;3.46;100.00;102498.85;108070;1277;73869;-77
2022/01/14 06:13:09;;;;;;;30.60;11.10;;;;;;;3.47;99.93;102487.95;108093;1277;71304;-78
2022/01/14 06:15:36;;;;;;;18.70;8.80;;;;;;;3.47;99.88;102485.83;108216;1276;72999;-76
2022/01/14 06:18:02;;;;;;;23.20;9.50;;;;;;;3.47;99.91;102484.58;108277;1276;62466;-76
2022/01/14 06:20:29;;;;;;;28.90;12.00;;;;;;;3.48;99.89;102483.70;108230;1276;62287;-75
2022/01/14 06:22:56;;;;;;;24.60;11.10;;;;;;;3.49;100.00;102481.87;108196;1277;75950;-75
2022/01/14 06:25:23;;;;;;;21.70;10.90;;;;;;;3.50;99.91;102486.87;108248;1277;71226;-76
2022/01/14 06:27:53;;;;;;;26.20;11.00;;;;;;;3.51;99.43;102491.38;108180;1277;71671;-75
2022/01/14 06:30:21;;;;;;;25.30;9.80;;;;;;;3.51;99.60;102494.86;108076;1277;60044;-78
2022/01/14 06:32:51;;;;;;;31.40;11.50;;;;;;;3.53;99.39;102484.81;108234;1277;60600;-76
2022/01/14 06:35:18;;;;;;;26.60;8.60;;;;;;;3.54;99.29;102484.77;108153;1277;75126;-76
2022/01/14 06:37:46;;;;;;;21.50;10.20;;;;;;;3.55;99.02;102490.46;108219;1277;71480;-77
2022/01/14 06:40:15;;;;;;;34.80;12.70;;;;;;;3.55;99.07;102492.37;108188;1277;72884;-79
2022/01/14 06:42:50;;;;;;;20.30;10.40;;;;;;;3.57;98.68;102502.08;107968;1277;62525;-80
2022/01/14 06:45:18;;;;;;;26.50;10.80;;;;;;;3.58;98.74;102514.28;108261;1277;60652;-80
2022/01/14 06:47:44;;;;;;;28.90;11.50;;;;;;;3.60;98.60;102523.41;108260;1277;76345;-79
2022/01/14 06:50:11;;;;;;;33.60;12.40;;;;;;;3.61;98.22;102526.84;108258;1277;72549;-78
2022/01/14 06:52:38;;;;;;;26.10;11.50;;;;;;;3.63;98.01;102533.08;108280;1277;73077;-77
2022/01/14 06:55:07;;;;;;;29.20;12.60;;;;;;;3.65;98.38;102534.35;108162;1277;62514;-78
2022/01/14 06:57:35;;;;;;;26.40;10.30;;;;;;;3.66;98.23;102544.95;108267;1277;60666;-76
2022/01/14 07:00:08;;;;;;;20.80;10.80;;;;;;;3.67;97.93;102549.80;108090;1277;75801;-77
2022/01/14 07:02:35;;;;;;;29.30;12.50;;;;;;;3.66;98.10;102555.27;108147;1277;72849;-76
2022/01/14 07:05:03;;;;;;;26.20;11.30;;;;;;;3.68;98.10;102551.13;108214;1277;74045;-77
2022/01/14 07:07:31;;;;;;;26.70;11.70;;;;;;;3.69;97.80;102560.02;108016;1277;62227;-76
2022/01/14 07:10:03;;;;;;;30.00;10.50;;;;;;;3.70;97.76;102560.85;108249;1277;60541;-79
2022/01/14 07:12:36;;;;;;;33.00;11.90;;;;;;;3.71;97.56;102554.50;108015;1279;76074;-77
2022/01/14 07:15:06;;;;;;;26.40;11.60;;;;;;;3.71;97.80;102560.11;108232;1277;71585;-77
2022/01/14 07:17:32;;;;;;;28.60;13.90;;;;;;;3.71;97.62;102555.03;108205;1277;73026;-77
2022/01/14 07:20:05;;;;;;;30.90;13.20;;;;;;;3.71;97.79;102560.82;108162;1277;62249;-77
2022/01/14 07:22:45;;;;;;;28.20;10.90;;;;;;;3.70;97.51;102559.46;108207;1277;61668;-78
2022/01/14 07:25:17;;;;;;;27.10;11.50;;;;;;;3.69;97.62;102557.39;108155;1277;74986;-77
2022/01/14 07:27:43;;;;;;;27.80;12.10;;;;;;;3.68;97.40;102569.86;108217;1277;72380;-78
2022/01/14 07:30:12;;;;;;;30.50;12.40;;;;;;;3.67;97.53;102575.85;108144;1277;71942;-78
2022/01/14 07:32:39;;;;;;;25.00;11.80;;;;;;;3.66;97.61;102574.88;108138;1277;62162;-78
2022/01/14 07:35:06;;;;;;;26.20;11.90;;;;;;;3.65;97.69;102571.80;108141;1277;62455;-78
2022/01/14 07:37:33;;;;;;;22.10;8.40;;;;;;;3.65;97.60;102566.50;108206;1277;76188;-78
2022/01/14 07:40:02;;;;;;;26.80;10.40;;;;;;;3.65;97.78;102565.63;108095;1279;71479;-79
2022/01/14 07:42:30;;;;;;;27.80;11.80;;;;;;;3.67;97.83;102565.04;108280;1277;72670;-80
2022/01/14 07:45:00;;;;;;;27.10;10.40;;;;;;;3.67;97.79;102561.51;108195;1277;61266;-80
2022/01/14 07:47:27;;;;;;;23.70;11.00;;;;;;;3.67;97.66;102569.02;108143;1279;60554;-80
2022/01/14 07:50:00;;;;;;;31.20;12.80;;;;;;;3.66;97.75;102571.01;108306;1277;74830;-79
2022/01/14 07:52:27;;;;;;;31.10;12.00;;;;;;;3.63;97.65;102577.11;108328;1277;71750;-79
2022/01/14 07:54:54;;;;;;;31.10;13.90;;;;;;;3.62;97.63;102586.63;108207;1277;73199;-80
2022/01/14 07:57:21;;;;;;;26.00;9.90;;;;;;;3.62;98.01;102588.04;108288;1277;61662;-80
2022/01/14 07:59:48;;;;;;;33.60;13.60;;;;;;;3.60;98.00;102591.12;107900;1279;61493;-77
2022/01/14 08:02:15;;;;;;;28.60;12.00;;;;;;;3.61;98.00;102593.71;108192;1277;74994;-78
2022/01/14 08:04:42;;;;;;;28.90;13.00;;;;;;;3.61;98.11;102597.73;108258;1276;72605;-78
2022/01/14 08:07:16;;;;;;;30.10;13.90;;;;;;;3.62;97.91;102593.85;108208;1277;74963;-75
2022/01/14 08:09:43;;;;;;;24.00;10.80;;;;;;;3.62;97.98;102599.77;107968;1279;62319;-76
2022/01/14 08:12:12;;;;;;;30.30;9.90;;;;;;;3.62;98.17;102605.56;108213;1277;59096;-75
2022/01/14 08:14:40;;;;;;;23.40;10.60;;;;;;;3.61;98.06;102611.17;107915;1277;74459;-76
2022/01/14 08:17:07;;;;;;;29.40;12.10;;;;;;;3.62;97.98;102614.47;108220;1277;71369;-77
2022/01/14 08:19:34;;;;;;;28.60;12.40;;;;;;;3.61;98.16;102623.77;108118;1277;74288;-75
2022/01/14 08:22:06;;;;;;;20.60;8.90;;;;;;;3.61;98.21;102627.13;108199;1277;63086;-76
2022/01/14 08:24:36;;;;;;;19.40;8.30;;;;;;;3.59;98.44;102625.48;108171;1277;61835;-77
2022/01/14 08:27:07;;;;;;;39.40;14.10;;;;;;;3.59;98.25;102627.95;108220;1277;75221;-76
2022/01/14 08:29:35;;;;;;;28.40;13.00;;;;;;;3.60;98.38;102629.61;108221;1277;71397;-77
2022/01/14 08:32:07;;;;;;;32.20;13.60;;;;;;;3.60;98.45;102634.01;108266;1277;72141;-78
2022/01/14 08:34:34;;;;;;;32.30;12.40;;;;;;;3.60;98.48;102642.94;108314;1276;63519;-79
2022/01/14 08:37:01;;;;;;;30.40;10.90;;;;;;;3.61;98.47;102639.02;108262;1277;62032;-78
2022/01/14 08:39:28;;;;;;;31.60;11.00;;;;;;;3.61;98.68;102642.14;108225;1277;74989;-78
2022/01/14 08:41:55;;;;;;;27.80;13.10;;;;;;;3.62;98.57;102630.70;108229;1278;59076;-79
2022/01/14 08:44:26;;;;;;;22.50;8.30;;;;;;;3.65;98.64;102625.66;108220;1278;74333;-78
2022/01/14 08:46:53;;;;;;;27.80;12.60;;;;;;;3.67;98.30;102626.60;107904;1277;63319;-79
2022/01/14 08:49:20;;;;;;;19.50;9.10;;;;;;;3.69;98.48;102630.52;108229;1277;60745;-79
2022/01/14 08:51:47;;;;;;;32.20;13.60;;;;;;;3.71;98.54;102630.43;108222;1279;74373;-80
2022/01/14 08:54:14;;;;;;;35.40;14.80;;;;;;;3.74;98.52;102621.36;108010;1279;73023;-80
2022/01/14 08:56:41;;;;;;;32.60;10.90;;;;;;;3.77;98.56;102624.35;108314;1277;73540;-80
2022/01/14 08:59:08;;;;;;;32.80;13.10;;;;;;;3.79;98.51;102625.47;108227;1277;62216;-81
2022/01/14 09:01:37;;;;;;;24.20;10.20;;;;;;;3.81;98.29;102627.60;108316;1277;61631;-80
2022/01/14 09:04:04;;;;;;;33.00;13.80;;;;;;;3.82;98.49;102625.63;108218;1277;76007;-81
2022/01/14 09:06:31;;;;;;;34.10;13.10;;;;;;;3.84;98.43;102624.48;108371;1277;71496;-81
2022/01/14 09:09:00;;;;;;;24.10;10.20;;;;;;;3.87;98.21;102626.05;108323;1277;72204;-81
2022/01/14 09:11:27;;;;;;;28.90;12.10;;;;;;;3.90;98.25;102621.73;108159;1279;62581;-80
2022/01/14 09:14:03;;;;;;;27.80;11.60;;;;;;;3.91;98.10;102616.55;108340;1277;60662;-80
2022/01/14 09:16:30;;;;;;;23.70;11.80;;;;;;;3.93;97.88;102617.34;108305;1277;75333;-79
2022/01/14 09:18:57;;;;;;;22.20;11.30;;;;;;;3.94;97.77;102606.63;108306;1278;71500;-81
2022/01/14 09:21:23;;;;;;;32.50;13.70;;;;;;;3.96;97.67;102606.83;108105;1277;75879;-77
2022/01/14 09:23:54;;;;;;;36.20;15.10;;;;;;;3.99;97.65;102604.39;108076;1279;63695;-76
2022/01/14 09:26:21;;;;;;;32.30;13.60;;;;;;;4.03;97.57;102605.08;108118;1278;61623;-77
2022/01/14 09:28:48;;;;;;;29.60;12.70;;;;;;;4.06;97.21;102604.89;108191;1276;74897;-76
2022/01/14 09:31:16;;;;;;;36.10;13.90;;;;;;;4.10;97.36;102602.22;108074;1279;71441;-76
2022/01/14 09:33:42;;;;;;;33.40;14.90;;;;;;;4.15;97.11;102596.55;108084;1279;73943;-76
2022/01/14 09:36:09;;;;;;;35.10;14.80;;;;;;;4.19;97.20;102592.66;108211;1277;63117;-76
2022/01/14 09:38:36;;;;;;;34.40;14.00;;;;;;;4.23;96.83;102594.67;108246;1274;61200;-76
2022/01/14 09:41:05;;;;;;;30.30;11.40;;;;;;;4.28;96.68;102598.23;108192;1278;76005;-75
2022/01/14 09:43:36;;;;;;;36.10;11.50;;;;;;;4.35;96.28;102605.91;108095;1278;70330;-75
2022/01/14 09:46:05;;;;;;;25.20;10.70;;;;;;;4.38;96.16;102598.36;108221;1277;74029;-75
2022/01/14 09:48:35;;;;;;;35.40;14.40;;;;;;;4.43;95.93;102620.33;108180;1277;62253;-75
2022/01/14 09:51:02;;;;;;;36.70;13.20;;;;;;;4.47;95.68;102621.66;108241;1277;59305;-77
2022/01/14 09:53:30;;;;;;;29.00;13.20;;;;;;;4.51;95.44;102619.75;108248;1277;75485;-78
2022/01/14 09:56:07;;;;;;;24.40;10.40;;;;;;;4.53;95.44;102616.61;107835;1279;71444;-78
2022/01/14 09:58:40;;;;;;;29.80;13.70;;;;;;;4.56;95.40;102622.57;108241;1270;151730;-74
2022/01/14 10:01:10;;;;;;;38.30;15.20;;;;;;;4.58;95.27;102622.09;108376;1276;62319;-74
2022/01/14 10:03:54;;;;;;;35.70;15.30;;;;;;;4.60;95.07;102618.28;108397;1276;61588;-74
2022/01/14 10:06:33;;;;;;;36.30;15.80;;;;;;;4.61;94.73;102623.54;108296;1276;76633;-74
2022/01/14 10:09:07;;;;;;;35.50;15.80;;;;;;;4.63;94.58;102621.14;108395;1276;72347;-74
2022/01/14 10:11:35;;;;;;;26.80;11.00;;;;;;;4.68;94.90;102623.25;108145;1277;73996;-75
2022/01/14 10:14:16;;;;;;;30.30;11.10;;;;;;;4.73;94.80;102620.70;108064;1277;62332;-74
2022/01/14 10:16:44;;;;;;;34.00;14.70;;;;;;;4.72;94.13;102621.29;108386;1276;60541;-74
2022/01/14 10:19:24;;;;;;;35.00;13.10;;;;;;;4.76;94.22;102624.41;108338;1276;76425;-75
2022/01/14 10:21:51;;;;;;;29.90;13.60;;;;;;;4.79;94.29;102624.23;108415;1276;71477;-74
2022/01/14 10:24:19;;;;;;;35.40;12.60;;;;;;;4.81;94.18;102623.05;108281;1276;72997;-74
2022/01/14 10:26:58;;;;;;;25.90;10.60;;;;;;;4.85;94.11;102625.82;108421;1276;62268;-74
2022/01/14 10:29:38;;;;;;;22.40;10.40;;;;;;;4.86;93.89;102626.06;108304;1276;60570;-75
2022/01/14 10:32:08;;;;;;;32.10;14.50;;;;;;;4.88;93.70;102620.53;108417;1276;74869;-74
2022/01/14 10:34:38;;;;;;;31.90;13.20;;;;;;;4.88;93.72;102620.89;108273;1277;71371;-74
2022/01/14 10:37:16;;;;;;;26.60;12.60;;;;;;;4.94;93.99;102615.63;108165;1277;73122;-74
2022/01/14 10:39:50;;;;;;;33.80;13.90;;;;;;;4.99;93.83;102624.11;108254;1277;62431;-75
2022/01/14 10:42:27;;;;;;;26.10;12.00;;;;;;;4.99;93.34;102626.00;108214;1277;60562;-75
2022/01/14 10:45:21;;;;;;;29.90;11.60;;;;;;;5.00;93.33;102623.33;108249;1277;74946;-75
2022/01/14 10:48:03;;;;;;;22.70;9.30;;;;;;;5.02;93.48;102624.48;108175;1278;71566;-74
2022/01/14 10:50:46;;;;;;;31.00;12.40;;;;;;;4.98;93.24;102627.46;108273;1277;73039;-74
2022/01/14 10:53:23;;;;;;;24.50;11.00;;;;;;;4.96;93.13;102625.36;108285;1277;63802;-74
2022/01/14 10:56:01;;;;;;;30.50;12.80;;;;;;;4.94;93.49;102613.90;107940;1278;60873;-74
2022/01/14 10:58:33;;;;;;;30.80;13.20;;;;;;;4.93;93.46;102605.52;107962;1277;73871;-74
2022/01/14 11:01:13;;;;;;;26.50;13.30;;;;;;;4.94;93.79;102606.19;108240;1277;72423;-74
2022/01/14 11:04:00;;;;;;;22.50;9.90;;;;;;;4.95;93.77;102604.52;108145;1278;74702;-74
2022/01/14 11:06:33;;;;;;;29.40;11.10;;;;;;;4.94;93.71;102596.70;108285;1277;60406;-74
2022/01/14 11:09:13;;;;;;;29.00;10.60;;;;;;;4.92;93.80;102601.20;108275;1277;61695;-75
2022/01/14 11:11:42;;;;;;;24.80;12.80;;;;;;;4.90;93.87;102590.59;107870;1279;74844;-75
2022/01/14 11:14:09;;;;;;;31.40;12.30;;;;;;;4.90;93.95;102585.36;108032;1279;71339;-76
2022/01/14 11:16:38;;;;;;;26.40;12.40;;;;;;;4.92;94.41;102584.70;107895;1279;73779;-76
2022/01/14 11:19:08;;;;;;;33.90;14.80;;;;;;;4.97;94.46;102581.44;108120;1278;62463;-76
2022/01/14 11:24:34;;;;;;;36.70;15.00;;;;;;;5.06;94.21;102573.85;108011;1279;74237;-76
2022/01/14 11:27:06;;;;;;;33.70;13.70;;;;;;;5.05;94.06;102571.81;108071;1277;72630;-75
2022/01/14 11:29:44;;;;;;;33.40;13.80;;;;;;;5.06;94.12;102568.96;108264;1277;72885;-77
2022/01/14 11:32:11;;;;;;;30.80;14.40;;;;;;;5.11;94.04;102564.27;108259;1278;62221;-76
2022/01/14 11:34:42;;;;;;;24.60;10.10;;;;;;;5.14;93.78;102570.05;108293;1277;60273;-77
2022/01/14 11:37:11;;;;;;;34.60;13.90;;;;;;;5.15;93.93;102561.95;108262;1278;76089;-79
2022/01/14 11:39:42;;;;;;;39.60;13.00;;;;;;;5.16;94.06;102574.48;108147;1279;71255;-77
2022/01/14 11:42:16;;;;;;;35.90;14.20;;;;;;;5.19;93.97;102582.23;108024;1278;74081;-77
2022/01/14 11:44:44;;;;;;;27.10;12.90;;;;;;;5.20;94.12;102581.59;108101;1279;63326;-76
2022/01/14 11:47:36;;;;;;;31.10;12.70;;;;;;;5.21;93.81;102586.98;108270;1278;62145;-77
2022/01/14 11:50:06;;;;;;;31.70;11.10;;;;;;;5.20;93.81;102583.72;108301;1278;74995;-76
2022/01/14 11:52:44;;;;;;;24.40;9.70;;;;;;;5.15;94.04;102594.20;107906;1278;71244;-76
2022/01/14 11:55:22;;;;;;;25.30;9.70;;;;;;;5.12;94.38;102596.98;108262;1277;73090;-76
2022/01/14 11:57:55;;;;;;;25.60;9.20;;;;;;;5.12;94.70;102587.04;108248;1277;63305;-76
2022/01/14 12:00:54;;;;;;;28.10;12.20;;;;;;;5.11;95.03;102583.18;108157;1277;60336;-76